Time;durP1;ratioP1;P1;durP2;ratioP2;P2;SDS_P1;SDS_P2;PMS_P1;PMS_P2;Temp;Humidity;BMP_temperature;BMP_pressure;BME280_temperature;BME280_humidity;BME280_pressure;Samples;Min_cycle;Max_cycle;Signal;HPM_P1;HPM_P2
2022/04/13 00:02:09;;;;;;;4.40;3.97;;;;;;;8.19;62.93;95100.72;5023865;28;20938;-82
2022/04/13 00:14:54;;;;;;;6.93;4.57;;;;;;;8.32;62.30;95104.09;5074875;28;20402;-83
2022/04/13 00:17:22;;;;;;;6.07;4.87;;;;;;;8.35;62.40;95107.34;5074725;28;20449;-84
2022/04/13 00:19:49;;;;;;;5.27;4.77;;;;;;;8.37;61.88;95112.47;5074962;28;20440;-83
2022/04/13 00:22:15;;;;;;;7.77;6.20;;;;;;;8.30;61.54;95101.59;5074783;28;20441;-83
2022/04/13 00:24:42;;;;;;;6.30;5.40;;;;;;;8.27;62.13;95111.44;5074834;28;20943;-84
2022/04/13 00:27:09;;;;;;;7.20;6.37;;;;;;;8.17;62.20;95089.53;5074692;28;20907;-83
2022/04/13 00:29:36;;;;;;;13.90;9.00;;;;;;;8.20;62.82;95105.81;5074802;28;20429;-82
2022/04/13 00:35:26;;;;;;;11.60;8.47;;;;;;;8.02;63.79;95102.75;5073037;28;20440;-83
2022/04/13 00:37:53;;;;;;;11.10;7.57;;;;;;;7.97;63.53;95098.78;5073840;28;20518;-82
2022/04/13 00:40:20;;;;;;;17.00;6.83;;;;;;;7.90;64.20;95101.00;5073595;28;20467;-82
2022/04/13 00:42:47;;;;;;;10.00;5.87;;;;;;;7.84;64.21;95100.63;5074227;28;20472;-82
2022/04/13 00:45:14;;;;;;;8.33;5.00;;;;;;;7.83;64.10;95096.34;5022785;28;20792;-82
2022/04/13 00:47:41;;;;;;;7.40;5.07;;;;;;;7.84;64.51;95098.84;5074563;28;20424;-82
2022/04/13 00:50:10;;;;;;;10.10;4.37;;;;;;;7.82;64.31;95099.91;5074461;28;20429;-82
2022/04/13 00:56:02;;;;;;;5.60;4.53;;;;;;;7.93;63.47;95105.19;5070506;28;20814;-82
2022/04/13 00:58:30;;;;;;;7.33;4.57;;;;;;;7.95;63.28;95104.13;5074104;28;20436;-83
2022/04/13 01:00:58;;;;;;;4.63;3.80;;;;;;;7.93;62.58;95108.63;5074751;28;20445;-82
2022/04/13 01:03:27;;;;;;;4.17;3.87;;;;;;;7.96;63.03;95103.19;5073953;28;20568;-84
2022/04/13 01:05:54;;;;;;;7.10;4.40;;;;;;;7.96;62.99;95099.72;5074129;28;20437;-84
2022/04/13 01:08:22;;;;;;;4.47;4.07;;;;;;;7.94;62.84;95102.47;5073758;28;20900;-83
2022/04/13 01:10:51;;;;;;;5.33;3.70;;;;;;;7.95;62.48;95100.69;5075101;28;20437;-83
2022/04/13 01:13:20;;;;;;;6.27;4.47;;;;;;;7.91;62.50;95097.44;5073692;28;20430;-83
2022/04/13 01:15:47;;;;;;;4.77;4.30;;;;;;;7.89;62.08;95101.94;5074250;28;20900;-82
2022/04/13 01:18:14;;;;;;;4.97;4.57;;;;;;;7.81;62.77;95095.63;5022519;28;20804;-84
2022/04/13 01:20:52;;;;;;;4.90;4.40;;;;;;;7.77;63.42;95105.41;5073894;28;20479;-83
2022/04/13 01:23:21;;;;;;;5.40;4.90;;;;;;;7.74;62.98;95110.84;5074318;28;20478;-83
2022/04/13 01:42:38;;;;;;;11.07;3.87;;;;;;;7.45;64.18;95105.06;5073475;28;20401;-83
2022/04/13 01:45:06;;;;;;;5.90;4.77;;;;;;;7.44;64.12;95104.22;5073586;28;20906;-83
2022/04/13 01:47:33;;;;;;;6.63;4.50;;;;;;;7.44;64.23;95106.81;5073833;28;20433;-84
2022/04/13 01:50:00;;;;;;;9.50;4.70;;;;;;;7.42;64.85;95105.25;5073799;28;20455;-82
2022/04/13 01:52:27;;;;;;;7.17;4.67;;;;;;;7.30;64.83;95098.28;5073796;28;20429;-83
2022/04/13 01:58:24;;;;;;;4.80;4.13;;;;;;;7.19;65.45;95100.78;5065676;28;20483;-83
2022/04/13 02:00:54;;;;;;;4.90;4.40;;;;;;;7.05;65.88;95093.91;5077943;28;20425;-82
2022/04/13 02:03:21;;;;;;;5.93;4.40;;;;;;;7.07;65.76;95102.47;5077262;28;21051;-83
2022/04/13 02:05:49;;;;;;;9.47;4.93;;;;;;;7.00;67.20;95098.59;5043288;28;20452;-82
2022/04/13 02:08:15;;;;;;;5.13;4.63;;;;;;;6.90;66.92;95093.16;5077260;28;20788;-83
2022/04/13 02:10:42;;;;;;;5.33;4.60;;;;;;;6.74;67.94;95098.56;5077718;28;21218;-83
2022/04/13 02:13:23;;;;;;;5.03;4.60;;;;;;;6.69;68.86;95095.44;5042209;28;20444;-82
2022/04/13 02:15:50;;;;;;;5.20;4.70;;;;;;;6.64;69.18;95097.47;5077430;28;20433;-83
2022/04/13 02:18:17;;;;;;;4.87;4.43;;;;;;;6.64;69.44;95102.69;5077295;28;20803;-83
2022/04/13 02:20:44;;;;;;;6.23;4.40;;;;;;;6.64;68.85;95087.06;5077485;28;20429;-82
2022/04/13 02:23:11;;;;;;;4.50;4.10;;;;;;;6.63;68.80;95090.59;5042444;28;21012;-82
2022/04/13 02:45:50;;;;;;;10.03;5.03;;;;;;;6.35;70.75;95082.91;5075503;28;20642;-83
2022/04/13 02:48:18;;;;;;;10.20;5.80;;;;;;;6.35;70.59;95080.31;5076888;28;20433;-83
2022/04/13 02:50:44;;;;;;;4.60;4.00;;;;;;;6.29;71.27;95083.31;5025044;28;20444;-83
2022/04/13 02:53:11;;;;;;;8.77;5.43;;;;;;;6.24;70.49;95080.19;5077195;28;20464;-83
2022/04/13 02:55:38;;;;;;;10.03;4.93;;;;;;;6.32;70.96;95083.13;5076514;28;20456;-82
2022/04/13 02:58:05;;;;;;;5.17;4.60;;;;;;;6.33;70.95;95087.41;5076758;28;20943;-82
2022/04/13 03:00:32;;;;;;;5.63;4.47;;;;;;;6.36;70.53;95087.19;5025358;28;20445;-82
2022/04/13 03:03:00;;;;;;;5.17;3.87;;;;;;;6.33;71.55;95092.59;5076065;28;20519;-82
2022/04/13 03:05:28;;;;;;;6.40;4.57;;;;;;;6.31;71.54;95100.53;5076801;28;20441;-83
2022/04/13 03:07:54;;;;;;;6.20;4.77;;;;;;;6.34;70.43;95099.50;5076128;28;20421;-83
2022/04/13 03:10:21;;;;;;;6.90;4.53;;;;;;;6.31;71.72;95107.50;5057349;28;20531;-83
2022/04/13 03:49:49;;;;;;;4.93;4.43;;;;;;;6.28;70.83;95121.56;5074604;28;20455;-82
2022/04/13 03:52:16;;;;;;;9.50;5.53;;;;;;;6.30;70.17;95130.13;5076311;28;20436;-84
2022/04/13 03:54:43;;;;;;;10.30;5.70;;;;;;;6.30;71.08;95124.09;5075872;28;20453;-84
2022/04/13 03:57:09;;;;;;;6.37;5.53;;;;;;;6.39;70.86;95126.13;5023587;28;20437;-84
2022/04/13 03:59:36;;;;;;;7.70;5.97;;;;;;;6.43;70.92;95127.59;5075180;28;20449;-83
2022/04/13 04:02:03;;;;;;;6.10;5.27;;;;;;;6.50;69.84;95129.69;5075472;28;20908;-82
2022/04/13 04:04:30;;;;;;;5.93;4.60;;;;;;;6.53;70.19;95131.25;5075759;28;20508;-83
2022/04/13 04:06:59;;;;;;;10.87;5.10;;;;;;;6.69;69.79;95129.34;5075505;28;20440;-82
2022/04/13 04:16:09;;;;;;;6.10;4.93;;;;;;;12.03;57.90;95152.34;5075253;28;20902;-82
2022/04/13 04:18:36;;;;;;;11.40;5.87;;;;;;;10.51;56.12;95151.94;5061830;28;20953;-84
2022/04/13 04:21:04;;;;;;;7.80;6.33;;;;;;;10.86;53.62;95154.34;5054115;28;20528;-83
2022/04/13 04:23:32;;;;;;;6.90;6.07;;;;;;;11.40;53.12;95156.81;5007721;28;20476;-83
2022/04/13 04:25:59;;;;;;;14.50;9.60;;;;;;;11.96;50.91;95156.47;5074744;28;20429;-83
2022/04/13 04:28:26;;;;;;;9.10;7.50;;;;;;;12.58;49.80;95158.03;5074590;28;20519;-83
2022/04/13 04:30:53;;;;;;;10.40;6.50;;;;;;;12.74;47.23;95156.69;5074455;28;20512;-82
2022/04/13 04:43:27;;;;;;;6.27;5.70;;;;;;;12.86;46.48;95185.41;5074182;28;20513;-83
2022/04/13 04:45:54;;;;;;;7.67;6.87;;;;;;;13.18;46.28;95186.97;5074239;28;20440;-83
2022/04/13 04:48:21;;;;;;;11.37;8.73;;;;;;;13.58;45.56;95184.16;5074488;28;20429;-83
2022/04/13 04:50:48;;;;;;;18.47;9.90;;;;;;;13.79;44.74;95197.19;5074494;28;20449;-83
2022/04/13 04:53:15;;;;;;;13.30;8.10;;;;;;;13.65;45.44;95193.19;5074284;28;20434;-82
2022/04/13 04:55:42;;;;;;;10.83;7.90;;;;;;;13.18;44.88;95194.88;5074095;28;20433;-83
2022/04/13 04:58:10;;;;;;;17.43;8.27;;;;;;;13.44;45.90;95200.44;5074407;28;20862;-83
2022/04/13 05:00:39;;;;;;;8.67;7.87;;;;;;;13.62;44.81;95199.59;5054113;28;20437;-82
2022/04/13 05:03:08;;;;;;;15.17;7.13;;;;;;;13.64;44.75;95200.28;5003499;28;20500;-83
2022/04/13 05:05:36;;;;;;;8.37;7.47;;;;;;;13.52;44.83;95209.28;5053792;28;20474;-82
2022/04/13 05:08:03;;;;;;;12.20;8.30;;;;;;;13.66;44.19;95204.56;5054613;28;20832;-83
2022/04/13 05:10:30;;;;;;;10.17;9.07;;;;;;;13.06;45.22;95214.41;5053903;28;20438;-82
2022/04/13 05:12:58;;;;;;;15.23;8.07;;;;;;;13.23;45.35;95216.38;5053788;28;20437;-83
2022/04/13 05:15:26;;;;;;;8.50;7.30;;;;;;;13.60;45.51;95213.88;5053827;28;20450;-82
2022/04/13 05:17:54;;;;;;;11.93;9.13;;;;;;;14.04;44.37;95207.13;5053791;28;20440;-82
2022/04/13 05:20:21;;;;;;;12.90;8.93;;;;;;;14.48;43.47;95215.34;5054001;28;20434;-81
2022/04/13 05:22:48;;;;;;;12.33;8.60;;;;;;;14.91;42.88;95206.75;5002671;28;20450;-83
2022/04/13 05:28:36;;;;;;;6.60;5.40;;;;;;;15.55;40.82;95220.75;5052789;28;20483;-82
2022/04/13 05:31:03;;;;;;;9.90;4.63;;;;;;;15.65;41.20;95221.56;5053337;28;20444;-82
2022/04/13 05:33:32;;;;;;;7.20;4.77;;;;;;;15.96;39.83;95219.31;5053138;28;20433;-82
2022/04/13 05:35:59;;;;;;;6.83;4.43;;;;;;;16.13;39.76;95225.53;5053913;28;20454;-82
2022/04/13 05:38:26;;;;;;;6.03;4.70;;;;;;;16.28;39.54;95218.69;5053483;28;21008;-83
2022/04/13 05:40:53;;;;;;;8.93;3.90;;;;;;;16.50;39.14;95220.81;5052742;28;20806;-83
2022/04/13 05:43:20;;;;;;;5.53;5.00;;;;;;;16.59;39.36;95221.66;5053271;28;20943;-81
2022/04/13 05:45:46;;;;;;;6.53;5.03;;;;;;;16.56;38.66;95222.81;5052765;28;20576;-80
2022/04/13 05:48:13;;;;;;;6.00;5.13;;;;;;;16.65;38.45;95226.31;5052951;28;20471;-81
2022/04/13 05:50:42;;;;;;;9.20;5.60;;;;;;;16.66;38.85;95220.06;5052820;28;20477;-82
2022/04/13 05:53:08;;;;;;;15.30;6.40;;;;;;;16.56;40.50;95214.03;5052676;28;20456;-83
2022/04/13 05:55:35;;;;;;;6.70;5.80;;;;;;;16.77;41.04;95213.63;5052702;28;20445;-83
2022/04/13 05:58:02;;;;;;;11.90;6.87;;;;;;;16.86;40.42;95212.69;5052466;28;20976;-83
2022/04/13 06:00:29;;;;;;;16.53;6.60;;;;;;;16.91;41.95;95215.69;5052443;28;20959;-81
2022/04/13 06:02:56;;;;;;;12.70;6.77;;;;;;;17.03;41.86;95219.69;5052442;28;20449;-83
2022/04/13 06:05:24;;;;;;;6.17;5.47;;;;;;;16.69;39.86;95215.28;5052330;28;20488;-81
2022/04/13 06:07:54;;;;;;;13.73;6.73;;;;;;;16.77;39.66;95221.59;5052341;28;20460;-82
2022/04/13 06:10:21;;;;;;;10.27;6.80;;;;;;;16.67;38.92;95225.19;5052723;28;20460;-81
2022/04/13 06:12:48;;;;;;;9.20;7.20;;;;;;;16.54;38.73;95219.50;5063753;28;20461;-80
2022/04/13 06:15:15;;;;;;;12.20;6.90;;;;;;;16.76;38.14;95225.22;5021606;28;20433;-80
2022/04/13 06:17:42;;;;;;;10.03;7.27;;;;;;;17.03;37.92;95217.88;5073049;28;20451;-81
2022/04/13 06:20:10;;;;;;;14.57;10.93;;;;;;;17.46;37.21;95215.97;5073336;28;20755;-81
2022/04/13 06:22:39;;;;;;;12.30;7.83;;;;;;;17.73;36.60;95222.84;5072902;28;20502;-80
2022/04/13 06:25:08;;;;;;;8.23;7.43;;;;;;;17.94;36.23;95225.84;5067285;28;20975;-81
2022/04/13 06:27:36;;;;;;;17.93;10.67;;;;;;;17.58;35.69;95219.13;5053209;28;20450;-81
2022/04/13 06:30:03;;;;;;;11.40;8.63;;;;;;;17.61;37.69;95224.09;5057532;28;20455;-82
2022/04/13 06:45:58;;;;;;;12.13;7.87;;;;;;;19.04;38.05;95224.22;5056658;28;20507;-85
2022/04/13 06:48:25;;;;;;;13.50;7.70;;;;;;;19.23;35.22;95227.47;5005371;28;20449;-84
2022/04/13 06:50:52;;;;;;;10.73;7.97;;;;;;;18.25;38.53;95223.31;5056375;28;20453;-84
2022/04/13 06:53:19;;;;;;;10.57;8.03;;;;;;;18.36;40.33;95222.09;5056978;28;20475;-82
2022/04/13 06:55:47;;;;;;;11.83;7.40;;;;;;;18.63;34.88;95220.06;5056466;28;20430;-84
2022/04/13 06:58:15;;;;;;;14.43;7.50;;;;;;;18.86;36.48;95221.00;5056218;28;20999;-83
2022/04/13 07:00:42;;;;;;;8.90;7.80;;;;;;;19.16;37.66;95219.34;5021865;28;20434;-84
2022/04/13 07:03:10;;;;;;;14.90;7.40;;;;;;;19.40;38.32;95218.38;5056380;28;20847;-84
2022/04/13 07:05:37;;;;;;;10.20;6.90;;;;;;;19.37;38.75;95218.72;5056324;28;20519;-84
2022/04/13 07:08:05;;;;;;;8.53;7.07;;;;;;;19.25;35.43;95214.81;5056017;28;20460;-81
2022/04/13 07:10:33;;;;;;;8.00;7.30;;;;;;;18.82;33.78;95214.38;5069721;28;20904;-80
2022/04/13 07:13:01;;;;;;;9.83;7.20;;;;;;;18.34;34.51;95216.13;5075842;28;20494;-80
2022/04/13 07:15:28;;;;;;;9.03;6.23;;;;;;;18.26;35.23;95210.84;5067232;28;20986;-81
2022/04/13 07:17:57;;;;;;;10.40;6.70;;;;;;;18.17;34.80;95217.16;5061142;28;20475;-82
2022/04/13 07:20:25;;;;;;;9.00;7.20;;;;;;;18.09;34.75;95218.00;5075811;28;20491;-84
2022/04/13 07:22:53;;;;;;;13.73;7.87;;;;;;;18.00;35.48;95219.00;5076123;28;20444;-80
2022/04/13 07:25:22;;;;;;;10.60;6.70;;;;;;;17.70;35.60;95217.88;5075937;28;20530;-80
2022/04/13 07:27:49;;;;;;;7.83;6.17;;;;;;;17.97;35.76;95224.66;5076249;28;20437;-79
2022/04/13 07:30:16;;;;;;;10.87;7.10;;;;;;;17.74;35.46;95219.19;5075895;28;20449;-80
2022/04/13 07:32:44;;;;;;;8.27;6.50;;;;;;;17.51;35.65;95216.31;5076651;28;20447;-80
2022/04/13 07:35:11;;;;;;;8.40;7.37;;;;;;;16.97;36.26;95221.16;5075796;28;20429;-80
2022/04/13 07:37:40;;;;;;;11.70;7.43;;;;;;;17.06;36.85;95218.53;5075721;28;20441;-80
2022/04/13 07:40:11;;;;;;;10.80;7.03;;;;;;;17.00;37.36;95220.84;5075445;28;20449;-79
2022/04/13 07:42:38;;;;;;;6.10;5.50;;;;;;;17.01;58.06;95221.69;5057441;28;20431;-84
2022/04/13 07:45:07;;;;;;;8.87;6.40;;;;;;;18.23;40.35;95213.84;5079238;28;20554;-84
2022/04/13 07:47:37;;;;;;;14.30;7.40;;;;;;;18.64;36.77;95216.41;5057449;28;20443;-86
2022/04/13 07:50:05;;;;;;;9.27;8.10;;;;;;;18.80;35.72;95214.53;5075621;28;20547;-83
2022/04/13 07:52:34;;;;;;;13.03;7.47;;;;;;;19.62;36.03;95214.09;5075279;28;20800;-83
2022/04/13 07:55:03;;;;;;;12.00;7.50;;;;;;;19.43;34.37;95212.72;5075287;28;20444;-81
2022/04/13 07:57:30;;;;;;;14.33;7.30;;;;;;;18.70;33.74;95210.41;5023806;28;20823;-79
2022/04/13 07:59:57;;;;;;;12.77;7.47;;;;;;;18.42;34.38;95202.81;5074734;28;20449;-80
2022/04/13 08:02:24;;;;;;;13.27;7.90;;;;;;;18.40;33.67;95215.44;5074446;28;20437;-80
2022/04/13 08:04:51;;;;;;;11.77;7.73;;;;;;;18.36;33.71;95208.81;5073673;28;20850;-80
2022/04/13 08:07:18;;;;;;;7.83;7.00;;;;;;;18.46;34.41;95208.63;5055160;28;20438;-80
2022/04/13 08:09:44;;;;;;;19.53;6.50;;;;;;;18.53;32.71;95209.63;5023800;28;20454;-80
2022/04/13 08:12:13;;;;;;;8.20;7.40;;;;;;;18.46;33.86;95211.28;5055132;28;20453;-79
2022/04/13 08:14:40;;;;;;;9.93;6.80;;;;;;;18.03;34.02;95202.75;5055886;28;20450;-79
2022/04/13 08:17:07;;;;;;;11.93;7.93;;;;;;;18.09;35.03;95209.22;5054364;28;20490;-79
2022/04/13 08:19:34;;;;;;;16.77;7.47;;;;;;;18.11;33.39;95204.56;5055603;28;20433;-79
2022/04/13 08:22:01;;;;;;;6.30;5.70;;;;;;;17.94;34.14;95209.91;5054940;28;20464;-79
2022/04/13 08:24:28;;;;;;;8.17;7.30;;;;;;;18.00;34.29;95219.00;5054266;28;20911;-79
2022/04/13 08:26:54;;;;;;;9.27;6.50;;;;;;;18.00;33.33;95211.03;5055034;28;20445;-79
2022/04/13 08:29:24;;;;;;;6.87;6.20;;;;;;;18.09;33.79;95211.84;5054685;28;20446;-79
2022/04/13 08:31:50;;;;;;;8.80;5.83;;;;;;;17.59;32.26;95212.84;5003208;28;20463;-79
2022/04/13 08:34:17;;;;;;;15.70;6.70;;;;;;;17.69;32.95;95210.06;5054305;28;21303;-80
2022/04/13 08:36:45;;;;;;;9.30;6.50;;;;;;;17.43;32.54;95210.19;5054505;28;20454;-79
2022/04/13 08:39:14;;;;;;;14.73;6.23;;;;;;;17.54;32.50;95210.69;5054243;28;20449;-79
2022/04/13 08:41:48;;;;;;;13.87;6.90;;;;;;;17.41;33.55;95213.00;5054048;28;20426;-80
2022/04/13 08:44:18;;;;;;;7.67;5.20;;;;;;;17.55;31.50;95198.25;5053945;28;20450;-79
2022/04/13 08:46:47;;;;;;;9.20;5.63;;;;;;;17.46;31.66;95202.72;5054155;28;20446;-80
2022/04/13 08:49:15;;;;;;;5.63;3.47;;;;;;;17.29;28.56;95209.81;5054526;28;20820;-79
2022/04/13 08:51:42;;;;;;;4.50;3.73;;;;;;;17.39;28.99;95192.94;5060700;28;20432;-80
2022/04/13 08:54:14;;;;;;;5.47;3.73;;;;;;;17.51;26.24;95197.75;5074260;28;20971;-80
2022/04/13 09:03:48;;;;;;;6.67;4.00;;;;;;;17.23;27.05;95177.81;5070814;28;20897;-80
2022/04/13 09:06:16;;;;;;;8.77;3.70;;;;;;;16.95;27.16;95177.25;5074485;28;20495;-80
2022/04/13 09:08:50;;;;;;;6.27;4.50;;;;;;;17.17;27.76;95189.09;5070046;28;20445;-80
2022/04/13 09:11:21;;;;;;;4.57;4.10;;;;;;;17.13;27.69;95179.78;5074378;28;20436;-80
2022/04/13 09:17:11;;;;;;;5.33;3.93;;;;;;;16.62;27.00;95169.19;5053271;28;20429;-79
2022/04/13 09:19:39;;;;;;;4.43;4.03;;;;;;;16.70;28.55;95176.34;5053875;28;20434;-79
2022/04/13 09:22:06;;;;;;;7.80;4.30;;;;;;;16.68;26.97;95178.34;5053802;28;20430;-79
2022/04/13 09:24:36;;;;;;;5.00;4.60;;;;;;;16.73;27.24;95176.84;5053741;28;20441;-79
2022/04/13 09:27:05;;;;;;;6.13;4.43;;;;;;;16.78;27.20;95168.44;5053619;28;20422;-78
2022/04/13 09:29:32;;;;;;;4.53;4.07;;;;;;;16.96;27.15;95165.66;4970152;28;20443;-80
2022/04/13 09:31:59;;;;;;;4.03;3.60;;;;;;;17.02;25.37;95165.00;5002329;28;20438;-78
2022/04/13 09:34:25;;;;;;;5.83;3.73;;;;;;;16.97;24.61;95159.38;5053463;28;20450;-79
2022/04/13 09:36:56;;;;;;;4.00;2.90;;;;;;;17.08;24.87;95158.25;5053465;28;20430;-79
2022/04/13 09:39:23;;;;;;;4.73;3.33;;;;;;;16.97;24.29;95160.19;5053317;28;20448;-79
2022/04/13 09:41:52;;;;;;;3.97;3.57;;;;;;;17.06;25.35;95155.75;5053460;28;20452;-79
2022/04/13 09:44:19;;;;;;;4.20;3.57;;;;;;;17.09;25.08;95152.78;5053575;28;20782;-79
2022/04/13 09:46:46;;;;;;;4.23;3.83;;;;;;;17.09;25.87;95154.59;5018502;28;20990;-78
2022/04/13 09:49:17;;;;;;;4.50;4.10;;;;;;;17.06;25.57;95155.75;5053636;28;20422;-79
2022/04/13 09:55:59;;;;;;;5.37;4.07;;;;;;;17.18;24.93;95149.13;5053050;28;20447;-78
2022/04/13 09:58:30;;;;;;;5.20;4.70;;;;;;;17.07;27.03;95138.03;5053169;28;20461;-79
2022/04/13 10:01:00;;;;;;;9.23;5.70;;;;;;;17.11;25.46;95145.50;5053308;28;20893;-79
2022/04/13 10:03:28;;;;;;;4.73;4.33;;;;;;;17.12;26.24;95133.88;5052773;28;20481;-79
2022/04/13 10:05:56;;;;;;;4.40;3.93;;;;;;;17.21;27.79;95140.84;5053986;28;20474;-79
2022/04/13 10:08:24;;;;;;;8.07;3.80;;;;;;;17.28;26.66;95136.53;5053140;28;20434;-79
2022/04/13 10:10:53;;;;;;;4.33;3.27;;;;;;;17.43;25.38;95138.53;5053683;28;20450;-78
2022/04/13 10:13:35;;;;;;;6.40;3.60;;;;;;;17.36;26.38;95125.13;5053296;28;20477;-79
2022/04/13 10:16:04;;;;;;;4.13;3.67;;;;;;;17.42;26.62;95135.06;5052940;28;20509;-78
2022/04/13 10:18:51;;;;;;;6.67;4.20;;;;;;;17.51;26.11;95134.06;5054514;28;20430;-79
2022/04/13 10:21:34;;;;;;;4.63;4.20;;;;;;;17.62;26.03;95133.72;5028313;28;20445;-84
2022/04/13 10:24:01;;;;;;;4.80;4.40;;;;;;;17.59;26.60;95119.94;5057158;28;20444;-78
2022/04/13 10:26:28;;;;;;;6.90;3.60;;;;;;;17.70;26.67;95127.63;5056409;28;20455;-78
2022/04/13 10:28:56;;;;;;;3.80;3.50;;;;;;;17.70;25.81;95126.78;5056690;28;20206;-79
2022/04/13 10:31:23;;;;;;;3.83;3.50;;;;;;;17.65;26.20;95121.97;5056720;28;20430;-79
2022/04/13 10:33:52;;;;;;;4.73;3.30;;;;;;;17.70;26.36;95122.31;5056357;28;20441;-79
2022/04/13 10:36:19;;;;;;;3.87;3.57;;;;;;;17.71;26.40;95118.66;5070761;28;20440;-79
2022/04/13 10:38:47;;;;;;;3.80;3.50;;;;;;;17.71;26.50;95112.53;5076804;28;20974;-79
2022/04/13 10:41:16;;;;;;;5.37;3.80;;;;;;;17.66;26.14;95115.66;5076279;28;20449;-79
2022/04/13 10:43:48;;;;;;;8.30;3.73;;;;;;;17.64;26.42;95112.34;5076035;28;20444;-79
2022/04/13 10:46:19;;;;;;;3.80;3.50;;;;;;;17.57;26.70;95112.16;5076210;28;20914;-79
2022/04/13 10:48:48;;;;;;;6.80;4.00;;;;;;;17.68;27.92;95112.88;5077015;28;20451;-79
2022/04/13 10:51:21;;;;;;;7.33;3.60;;;;;;;17.54;27.36;95103.72;5076738;28;20440;-79
2022/04/13 10:53:59;;;;;;;4.40;3.40;;;;;;;17.46;26.97;95101.06;5076581;28;20787;-78
2022/04/13 10:56:28;;;;;;;4.37;3.17;;;;;;;17.40;27.11;95107.03;5073791;28;20413;-79
2022/04/13 10:59:02;;;;;;;4.80;4.10;;;;;;;17.45;28.46;95099.41;5056421;28;20456;-79
2022/04/13 11:01:37;;;;;;;7.20;4.03;;;;;;;17.39;27.26;95102.75;5056722;28;20512;-79
2022/04/13 11:04:07;;;;;;;6.37;4.60;;;;;;;17.34;26.79;95104.03;5016405;28;20987;-79
2022/04/13 11:09:58;;;;;;;3.70;3.40;;;;;;;17.68;26.81;95097.75;5015910;28;20796;-80
2022/04/13 11:12:26;;;;;;;10.63;5.07;;;;;;;17.83;25.98;95089.94;5016909;28;20807;-79
2022/04/13 11:14:56;;;;;;;6.03;4.50;;;;;;;17.93;25.41;95077.31;5017074;28;20443;-79
2022/04/13 11:17:26;;;;;;;5.30;4.07;;;;;;;18.00;27.27;95085.41;5016394;28;20449;-79
2022/04/13 11:20:20;;;;;;;7.60;4.67;;;;;;;17.89;24.51;95081.28;5016614;28;20526;-79
2022/04/13 11:22:47;;;;;;;8.63;3.97;;;;;;;17.95;25.10;95078.78;5016513;28;20443;-78
2022/04/13 11:25:45;;;;;;;5.00;4.17;;;;;;;18.07;25.61;95081.91;5016559;28;20514;-78
2022/04/13 11:28:12;;;;;;;4.80;4.00;;;;;;;18.18;24.83;95070.88;5016218;28;20440;-79
2022/04/13 11:31:01;;;;;;;5.30;4.37;;;;;;;18.30;24.46;95075.84;5015520;28;20507;-79
2022/04/13 11:33:52;;;;;;;5.90;4.20;;;;;;;18.33;24.36;95073.66;5016213;28;20921;-78
2022/04/13 11:36:21;;;;;;;4.17;3.50;;;;;;;18.29;24.25;95069.69;5015777;28;20534;-78
2022/04/13 11:38:50;;;;;;;4.17;3.60;;;;;;;18.25;25.28;95071.06;5016240;28;20546;-79
2022/04/13 11:41:17;;;;;;;5.10;4.50;;;;;;;18.27;24.86;95061.91;5016064;28;20792;-79
2022/04/13 11:43:45;;;;;;;5.63;4.20;;;;;;;18.33;24.43;95059.56;5016277;28;20466;-79
2022/04/13 11:46:39;;;;;;;4.33;3.80;;;;;;;18.31;23.39;95057.06;5015516;28;20483;-78
2022/04/13 11:49:13;;;;;;;7.97;4.07;;;;;;;18.04;23.60;95061.00;5015612;28;20432;-79
2022/04/13 11:51:40;;;;;;;4.73;3.53;;;;;;;17.80;23.20;95053.09;5015055;28;20451;-79
2022/04/13 11:54:09;;;;;;;4.63;4.10;;;;;;;17.78;24.37;95039.19;5014654;28;20938;-79
2022/04/13 11:56:38;;;;;;;5.77;4.83;;;;;;;17.88;25.88;95051.25;5014681;28;20837;-80
2022/04/13 11:59:06;;;;;;;5.23;4.53;;;;;;;17.92;25.48;95052.56;5015166;28;20448;-79
2022/04/13 12:01:34;;;;;;;12.93;4.63;;;;;;;18.01;26.07;95047.25;5015533;28;20448;-79
2022/04/13 12:04:06;;;;;;;5.20;4.40;;;;;;;18.11;26.49;95039.88;5035400;28;20435;-77
2022/04/13 12:06:34;;;;;;;6.13;4.97;;;;;;;18.03;25.63;95037.28;5035038;28;20474;-79
2022/04/13 12:09:03;;;;;;;6.53;4.67;;;;;;;18.00;26.78;95032.31;5035556;28;20435;-78
2022/04/13 12:11:41;;;;;;;7.73;4.90;;;;;;;18.00;25.17;95032.31;5035221;28;20441;-79
2022/04/13 12:14:09;;;;;;;5.70;4.17;;;;;;;17.99;25.14;95030.66;5035135;28;20437;-79
2022/04/13 12:16:38;;;;;;;4.20;3.80;;;;;;;17.79;25.73;95015.13;5017236;28;20941;-78
2022/04/13 12:19:07;;;;;;;3.40;3.17;;;;;;;17.69;25.68;95014.50;5036480;28;20458;-79
2022/04/13 12:21:36;;;;;;;5.40;4.17;;;;;;;17.75;26.11;95010.31;5054748;28;20449;-79
2022/04/13 12:24:05;;;;;;;3.80;2.97;;;;;;;17.89;26.30;95010.41;5054703;28;20484;-79
2022/04/13 12:26:34;;;;;;;4.23;3.70;;;;;;;17.81;25.91;95013.13;5054825;28;20502;-78
2022/04/13 12:29:02;;;;;;;3.63;3.13;;;;;;;17.75;24.13;95013.81;5054624;28;20446;-78
2022/04/13 12:31:29;;;;;;;4.20;3.80;;;;;;;17.88;24.80;95008.75;5054960;28;20433;-79
2022/04/13 12:34:04;;;;;;;3.63;3.20;;;;;;;17.99;25.76;95009.41;5054392;28;20513;-79
2022/04/13 12:36:31;;;;;;;3.43;3.10;;;;;;;18.07;25.80;95002.22;5019648;28;20433;-79
2022/04/13 12:38:59;;;;;;;6.67;4.10;;;;;;;18.19;26.86;94992.03;5054826;28;20454;-79
2022/04/13 12:41:29;;;;;;;4.67;4.10;;;;;;;18.18;26.75;94988.53;5054222;28;20905;-80
2022/04/13 12:43:59;;;;;;;5.73;4.20;;;;;;;18.19;26.21;94984.88;5054439;28;20870;-79
2022/04/13 12:46:27;;;;;;;5.80;3.47;;;;;;;18.16;26.14;94989.72;5054538;28;20949;-78
2022/04/13 12:48:57;;;;;;;9.77;4.20;;;;;;;18.17;27.46;94980.75;5054096;28;20488;-78
2022/04/13 12:51:25;;;;;;;5.60;3.20;;;;;;;18.26;26.38;94979.72;5054147;28;20460;-79
2022/04/13 12:53:55;;;;;;;8.10;4.80;;;;;;;18.34;26.40;94971.69;5036004;28;20453;-79
2022/04/13 12:56:26;;;;;;;5.93;3.53;;;;;;;18.31;26.25;94976.53;5044744;28;20438;-79
2022/04/13 12:58:53;;;;;;;8.70;3.63;;;;;;;18.35;25.83;94976.00;5016032;28;20442;-79
2022/04/13 13:01:34;;;;;;;5.97;4.33;;;;;;;18.38;26.81;94969.53;5033965;28;20917;-79
2022/04/13 13:04:12;;;;;;;4.00;3.40;;;;;;;18.30;26.38;94962.44;5034232;28;20448;-79
2022/04/13 13:06:53;;;;;;;5.63;3.80;;;;;;;18.38;26.10;94962.38;5033754;28;20487;-79
2022/04/13 13:09:22;;;;;;;3.77;3.30;;;;;;;18.43;26.99;94970.63;5034234;28;20457;-80
2022/04/13 13:11:56;;;;;;;6.43;3.80;;;;;;;18.32;26.27;94968.41;4967557;28;20434;-79
2022/04/13 13:14:33;;;;;;;8.73;3.90;;;;;;;18.30;26.41;94958.94;5033752;28;20446;-79
2022/04/13 13:17:15;;;;;;;5.40;3.80;;;;;;;18.46;26.17;94961.47;5032828;28;20449;-80
2022/04/13 13:19:42;;;;;;;8.23;4.30;;;;;;;18.43;25.58;94952.03;5038722;28;20187;-77
2022/04/13 13:22:11;;;;;;;4.50;3.50;;;;;;;18.44;26.08;94953.69;5053729;28;20434;-78
2022/04/13 13:24:46;;;;;;;5.27;3.30;;;;;;;18.56;25.54;94959.44;5053475;28;20804;-79
2022/04/13 13:27:15;;;;;;;5.93;4.10;;;;;;;18.69;26.02;94950.91;5053295;28;20469;-79
2022/04/13 13:36:26;;;;;;;4.93;3.30;;;;;;;18.54;24.85;94934.88;5052438;28;20479;-79
2022/04/13 14:13:51;;;;;;;8.90;3.07;;;;;;;18.52;26.04;94911.13;5029461;28;21253;-79
2022/04/13 14:16:18;;;;;;;7.63;3.17;;;;;;;18.54;25.25;94906.47;5013388;28;20519;-79
2022/04/13 14:18:45;;;;;;;3.20;2.90;;;;;;;18.64;24.35;94900.09;4995072;28;20459;-78
2022/04/13 14:21:12;;;;;;;2.83;2.63;;;;;;;18.67;23.36;94913.03;4995090;28;20519;-79
2022/04/13 14:23:39;;;;;;;2.60;2.40;;;;;;;18.74;23.92;94904.16;5013433;28;20888;-79
2022/04/13 14:26:06;;;;;;;3.07;2.70;;;;;;;18.75;25.37;94903.16;5013246;28;20903;-78
2022/04/13 14:28:33;;;;;;;3.00;2.80;;;;;;;18.79;23.59;94899.16;5013545;28;20443;-79
2022/04/13 14:31:02;;;;;;;3.53;2.83;;;;;;;18.73;23.04;94894.53;5014018;28;20424;-78
2022/04/13 14:33:30;;;;;;;3.03;2.73;;;;;;;18.73;24.70;94904.34;5013555;28;20550;-78
2022/04/13 14:35:57;;;;;;;6.00;2.73;;;;;;;18.55;25.00;94913.44;4994827;28;20915;-79
2022/04/13 14:38:24;;;;;;;11.60;7.40;;;;;;;18.51;25.26;94908.66;5011767;28;21023;-80
2022/04/13 14:40:51;;;;;;;3.80;3.43;;;;;;;18.37;24.34;94918.22;5013176;28;20455;-79
2022/04/13 14:43:19;;;;;;;3.20;2.70;;;;;;;18.42;25.23;94910.53;5012949;28;20630;-79
2022/04/13 14:45:46;;;;;;;4.47;3.33;;;;;;;18.40;25.58;94901.91;5013244;28;20985;-79
2022/04/13 14:48:15;;;;;;;3.33;3.03;;;;;;;18.31;25.04;94908.31;4994965;28;20489;-79
2022/04/13 14:50:46;;;;;;;3.40;3.13;;;;;;;18.27;25.47;94909.66;5013482;28;20937;-79